^^
Station Historical Data
Daily Summary for July 22, 2017 Units:  English    Metric   Both
« Previous Day
Next Day »
Daily Weekly Monthly Yearly Custom
  High: Low: Average:
Temperature: 88.1 °F 71.2 °F 79.2 °F
Dew Point: 71.5 °F 59.2 °F 66.7 °F
Humidity: 93% 40% 68%
Wind Speed: 5.0mph 0.0mph 0.4mph
Wind Gust: 7.0mph - -
Wind- - West
Pressure: 29.90 in 29.76 in -
Precipitation: 0.01 in    
Historical Graphs
 
 
Tabular Data for July 22, 2017
Time Temperature Dew Point Pressure Wind Wind Speed Wind Gust Humidity Rainfall Rate (Hourly) Conditions
00:00 79.7 °F 71.1 °F 29.87 in Calm   3.0 mph 75% 0.00 in CLR
00:15 79.6 °F 71.4 °F 29.87 in Calm   2.0 mph 76% 0.00 in CLR
00:30 79.5 °F 71.3 °F 29.87 in Calm   4.0 mph 76% 0.00 in CLR
00:45 79.1 °F 71.3 °F 29.87 in Calm   1.0 mph 77% 0.00 in CLR
01:00 79.1 °F 71.3 °F 29.86 in Calm   4.0 mph 77% 0.00 in CLR
01:15 79.2 °F 71.4 °F 29.86 in Calm   3.0 mph 77% 0.00 in SCT
01:30 78.9 °F 71.5 °F 29.87 in Calm   2.0 mph 78% 0.00 in SCT
01:45 78.9 °F 71.5 °F 29.87 in Calm   1.0 mph 78% 0.00 in SCT
02:00 78.6 °F 71.5 °F 29.87 in Calm   1.0 mph 79% 0.00 in SCT
02:15 78.6 °F 71.5 °F 29.87 in Calm   1.0 mph 79% 0.00 in FEW
02:30 78.1 °F 71.4 °F 29.87 in Calm   1.0 mph 80% 0.00 in FEW
02:45 78.4 °F 71.3 °F 29.87 in North 2.0 mph 3.0 mph 79% 0.00 in FEW
03:00 78.1 °F 71.1 °F 29.87 in Calm   4.0 mph 79% 0.00 in FEW
03:15 77.5 °F 70.5 °F 29.87 in NNW 1.0 mph 7.0 mph 79% 0.00 in FEW
03:30 76.8 °F 69.8 °F 29.87 in NW 1.0 mph 4.0 mph 79% 0.00 in FEW
03:45 76.3 °F 70.0 °F 29.86 in Calm   3.0 mph 81% 0.00 in FEW
04:00 75.6 °F 69.4 °F 29.86 in Calm   3.0 mph 81% 0.00 in FEW
04:15 75.1 °F 69.2 °F 29.86 in Calm   3.0 mph 82% 0.00 in FEW
04:30 74.1 °F 68.6 °F 29.86 in Calm     83% 0.00 in FEW
04:45 73.3 °F 68.6 °F 29.86 in Calm     85% 0.00 in FEW
05:00 72.6 °F 68.2 °F 29.86 in Calm     86% 0.00 in FEW
05:15 72.2 °F 68.4 °F 29.86 in Calm     88% 0.00 in CLR
05:30 72.9 °F 69.1 °F 29.86 in Calm   1.0 mph 88% 0.00 in CLR
05:45 72.7 °F 68.6 °F 29.86 in Calm   1.0 mph 87% 0.00 in CLR
06:00 71.8 °F 68.4 °F 29.87 in Calm   1.0 mph 89% 0.00 in CLR
06:15 71.3 °F 68.5 °F 29.87 in Calm     91% 0.00 in CLR
06:30 71.2 °F 68.4 °F 29.87 in Calm     91% 0.00 in CLR
06:45 71.4 °F 69.3 °F 29.88 in Calm     93% 0.00 in CLR
07:00 71.9 °F 69.4 °F 29.89 in Calm     92% 0.00 in CLR
07:15 72.0 °F 69.6 °F 29.89 in Calm     92% 0.00 in CLR
07:30 72.3 °F 69.9 °F 29.89 in Calm     92% 0.00 in CLR
07:45 72.7 °F 69.3 °F 29.90 in Calm     89% 0.00 in CLR
08:00 74.7 °F 68.8 °F 29.90 in Calm   2.0 mph 82% 0.00 in CLR
08:15 76.0 °F 67.9 °F 29.90 in Calm   1.0 mph 76% 0.00 in CLR
08:30 76.7 °F 66.2 °F 29.89 in Calm   4.0 mph 70% 0.00 in CLR
08:45 77.7 °F 66.7 °F 29.90 in Calm   4.0 mph 69% 0.00 in CLR
09:00 78.5 °F 65.3 °F 29.89 in NW 1.0 mph 4.0 mph 64% 0.00 in CLR
09:15 79.2 °F 67.3 °F 29.89 in Calm   4.0 mph 67% 0.00 in CLR
09:30 78.9 °F 67.9 °F 29.89 in WNW 1.0 mph 3.0 mph 69% 0.00 in CLR
10:00 79.0 °F 67.5 °F 29.89 in West 1.0 mph 5.0 mph 68% 0.00 in CLR
10:15 79.7 °F 68.2 °F 29.89 in West 1.0 mph 4.0 mph 68% 0.00 in CLR
10:30 80.2 °F 67.8 °F 29.89 in NNW 1.0 mph 5.0 mph 66% 0.00 in CLR
10:45 81.2 °F 68.3 °F 29.89 in WSW 2.0 mph 4.0 mph 65% 0.00 in CLR
11:00 80.3 °F 67.5 °F 29.89 in NW 1.0 mph 4.0 mph 65% 0.00 in CLR
11:15 81.2 °F 66.5 °F 29.89 in WNW 1.0 mph 4.0 mph 61% 0.00 in CLR
11:30 82.8 °F 63.9 °F 29.89 in NW 1.0 mph 3.0 mph 53% 0.00 in CLR
11:45 84.1 °F 61.1 °F 29.88 in West 3.0 mph 6.0 mph 46% 0.00 in CLR
12:00 83.8 °F 59.6 °F 29.88 in West 1.0 mph 4.0 mph 44% 0.00 in CLR
12:15 84.9 °F 59.2 °F 29.87 in SSW 1.0 mph 5.0 mph 42% 0.00 in CLR
12:30 85.8 °F 62.0 °F 29.86 in SSE 1.0 mph 4.0 mph 45% 0.00 in CLR
12:45 86.8 °F 62.9 °F 29.86 in SSW 1.0 mph 6.0 mph 45% 0.00 in CLR
13:00 85.4 °F 62.9 °F 29.86 in West 2.0 mph 5.0 mph 47% 0.00 in CLR
13:15 86.7 °F 63.4 °F 29.86 in SW 5.0 mph 6.0 mph 46% 0.00 in CLR
13:30 86.6 °F 62.8 °F 29.85 in Calm   6.0 mph 45% 0.00 in CLR
13:45 86.6 °F 60.7 °F 29.84 in WSW 2.0 mph 5.0 mph 42% 0.00 in CLR
14:00 87.0 °F 61.8 °F 29.84 in SW 2.0 mph 5.0 mph 43% 0.00 in CLR
14:15 86.3 °F 62.5 °F 29.83 in WSW 1.0 mph 3.0 mph 45% 0.00 in CLR
14:30 86.9 °F 61.0 °F 29.83 in SW 1.0 mph 4.0 mph 42% 0.00 in CLR
14:45 85.8 °F 62.0 °F 29.83 in Calm   5.0 mph 45% 0.00 in CLR
15:00 86.9 °F 61.0 °F 29.82 in Calm   2.0 mph 42% 0.00 in CLR
15:15 87.9 °F 62.6 °F 29.82 in SW 1.0 mph 3.0 mph 43% 0.00 in CLR
15:30 88.0 °F 62.0 °F 29.81 in SSW 2.0 mph 4.0 mph 42% 0.00 in CLR
15:45 87.5 °F 61.6 °F 29.81 in Calm   4.0 mph 42% 0.00 in CLR
16:00 88.1 °F 62.8 °F 29.80 in Calm   5.0 mph 43% 0.00 in CLR
16:15 88.0 °F 62.7 °F 29.79 in Calm   3.0 mph 43% 0.00 in SKC
16:30 87.7 °F 62.5 °F 29.79 in SW 2.0 mph 4.0 mph 43% 0.00 in SKC
16:45 87.6 °F 61.0 °F 29.79 in Calm   2.0 mph 41% 0.00 in SKC
17:00 87.7 °F 60.4 °F 29.78 in Calm   2.0 mph 40% 0.00 in SKC
17:15 85.4 °F 64.7 °F 29.78 in Calm   1.0 mph 50% 0.00 in FEW
17:30 83.7 °F 64.8 °F 29.78 in Calm   1.0 mph 53% 0.00 in FEW
17:45 82.5 °F 66.2 °F 29.78 in Calm   1.0 mph 58% 0.00 in FEW
18:00 81.4 °F 67.1 °F 29.78 in Calm   1.0 mph 62% 0.00 in FEW
18:15 80.2 °F 67.4 °F 29.78 in Calm   1.0 mph 65% 0.00 in FEW
18:30 79.6 °F 67.7 °F 29.78 in Calm     67% 0.00 in FEW
18:45 80.1 °F 68.1 °F 29.77 in Calm   1.0 mph 67% 0.00 in FEW
19:00 79.6 °F 66.8 °F 29.77 in Calm   1.0 mph 65% 0.00 in FEW
19:15 79.1 °F 66.3 °F 29.77 in Calm   1.0 mph 65% 0.00 in CLR
19:30 78.1 °F 65.8 °F 29.77 in Calm     66% 0.00 in CLR
19:45 77.4 °F 66.4 °F 29.77 in Calm     69% 0.00 in CLR
20:00 76.7 °F 66.6 °F 29.77 in Calm   1.0 mph 71% 0.00 in CLR
20:15 76.7 °F 66.2 °F 29.77 in Calm   1.0 mph 70% 0.00 in SCT
20:30 77.0 °F 66.0 °F 29.77 in Calm     69% 0.00 in SCT
20:45 76.8 °F 67.1 °F 29.77 in Calm   1.0 mph 72% 0.00 in SCT
21:00 75.5 °F 67.4 °F 29.77 in Calm   1.0 mph 76% 0.00 in SCT
21:15 74.9 °F 66.1 °F 29.78 in Calm   1.0 mph 74% 0.00 in SCT
21:30 75.1 °F 65.9 °F 29.77 in Calm   1.0 mph 73% 0.00 in SCT
21:45 75.3 °F 65.3 °F 29.78 in Calm   1.0 mph 71% 0.00 in SCT
22:00 75.3 °F 66.0 °F 29.78 in Calm   1.0 mph 73% 0.00 in SCT
22:15 75.3 °F 66.0 °F 29.78 in Calm   3.0 mph 73% 0.00 in SCT
22:30 75.0 °F 66.5 °F 29.77 in Calm   1.0 mph 75% 0.00 in SCT
22:45 74.9 °F 66.5 °F 29.77 in Calm   1.0 mph 75% 0.00 in SCT
23:00 75.0 °F 66.5 °F 29.77 in Calm   1.0 mph 75% 0.00 in SCT
23:15 74.8 °F 67.1 °F 29.76 in Calm   1.0 mph 77% 0.00 in SCT
23:30 73.5 °F 67.6 °F 29.76 in Calm     82% 0.00 in SCT
23:45 72.5 °F 67.7 °F 29.76 in Calm   1.0 mph 85% 0.01 in RA
TarryTown NY Weather
Compliments of Weather Underground - 1.5 mb